createdAt,value
2023-12-05T00:00:39.685Z,17.25
2023-12-05T00:03:06.837Z,18.77
2023-12-05T00:05:34.265Z,17.88
2023-12-05T00:08:01.204Z,18.00
2023-12-05T00:10:28.174Z,21.08
2023-12-05T00:12:55.090Z,21.48
2023-12-05T00:15:22.157Z,20.10
2023-12-05T00:17:49.117Z,19.92
2023-12-05T00:20:16.062Z,16.50
2023-12-05T00:22:42.925Z,15.80
2023-12-05T00:25:10.147Z,20.73
2023-12-05T00:27:37.030Z,18.65
2023-12-05T00:30:04.486Z,17.10
2023-12-05T00:32:32.894Z,21.33
2023-12-05T00:34:59.969Z,19.42
2023-12-05T00:37:26.856Z,21.25
2023-12-05T00:39:53.803Z,15.63
2023-12-05T00:42:20.741Z,17.70
2023-12-05T00:44:47.689Z,16.77
2023-12-05T00:47:14.544Z,18.80
2023-12-05T00:49:41.622Z,20.15
2023-12-05T00:52:08.485Z,18.90
2023-12-05T00:54:35.881Z,18.88
2023-12-05T00:57:02.814Z,18.60
2023-12-05T00:59:29.701Z,19.67
2023-12-05T01:01:56.605Z,21.40
2023-12-05T01:06:51.309Z,22.77
2023-12-05T01:09:18.419Z,16.75
2023-12-05T01:11:45.604Z,16.65
2023-12-05T01:14:12.497Z,17.48
2023-12-05T01:16:44.783Z,19.20
2023-12-05T01:19:12.161Z,17.30
2023-12-05T01:21:39.116Z,19.15
2023-12-05T01:24:06.185Z,22.73
2023-12-05T01:26:34.041Z,19.63
2023-12-05T01:29:00.951Z,18.77
2023-12-05T01:31:27.806Z,15.98
2023-12-05T01:33:54.946Z,21.65
2023-12-05T01:36:22.162Z,19.67
2023-12-05T01:38:49.281Z,18.58
2023-12-05T01:41:16.845Z,15.90
2023-12-05T01:43:43.753Z,20.65
2023-12-05T01:46:11.084Z,19.58
2023-12-05T01:48:38.474Z,21.50
2023-12-05T01:51:06.629Z,20.98
2023-12-05T01:53:35.450Z,18.20
2023-12-05T01:56:04.380Z,19.13
2023-12-05T01:58:35.054Z,16.95
2023-12-05T02:01:04.858Z,20.02
2023-12-05T02:03:33.011Z,20.45
2023-12-05T02:06:01.023Z,19.40
2023-12-05T02:08:31.500Z,19.25
2023-12-05T02:10:58.364Z,15.25
2023-12-05T02:13:25.179Z,18.38
2023-12-05T02:16:05.846Z,18.50
2023-12-05T02:18:39.527Z,19.23
2023-12-05T02:21:21.588Z,16.38
2023-12-05T02:24:34.383Z,18.63
2023-12-05T02:27:20.275Z,18.25
2023-12-05T02:29:51.632Z,18.83
2023-12-05T02:32:19.002Z,18.63
2023-12-05T02:34:46.483Z,20.50
2023-12-05T02:37:25.072Z,24.08
2023-12-05T02:40:04.315Z,19.13
2023-12-05T02:42:32.901Z,19.38
2023-12-05T02:45:03.108Z,19.92
2023-12-05T02:47:33.091Z,20.33
2023-12-05T02:50:00.029Z,23.50
2023-12-05T02:52:27.081Z,21.35
2023-12-05T02:54:53.955Z,21.38
2023-12-05T02:57:20.846Z,19.80
2023-12-05T02:59:47.733Z,20.65
2023-12-05T03:02:14.632Z,21.95
2023-12-05T03:04:41.648Z,21.70
2023-12-05T03:07:08.643Z,21.85
2023-12-05T03:09:35.555Z,19.77
2023-12-05T03:12:02.458Z,24.58
2023-12-05T03:14:29.292Z,21.33
2023-12-05T03:16:56.801Z,20.13
2023-12-05T03:19:23.791Z,20.25
2023-12-05T03:21:50.720Z,21.20
2023-12-05T03:24:18.161Z,23.40
2023-12-05T03:26:45.065Z,19.95
2023-12-05T03:29:11.999Z,19.85
2023-12-05T03:31:40.832Z,20.58
2023-12-05T03:34:08.139Z,22.58
2023-12-05T03:36:35.613Z,22.75
2023-12-05T03:39:02.495Z,23.08
2023-12-05T03:41:29.443Z,22.55
2023-12-05T03:43:56.281Z,21.63
2023-12-05T03:46:23.235Z,23.45
2023-12-05T03:48:50.200Z,21.55
2023-12-05T03:51:17.199Z,26.08
2023-12-05T03:53:44.189Z,22.77
2023-12-05T03:56:11.399Z,22.38
2023-12-05T03:58:38.298Z,24.40
2023-12-05T04:01:05.327Z,23.50
2023-12-05T04:03:32.418Z,26.48
2023-12-05T04:05:59.434Z,23.23
2023-12-05T04:08:26.265Z,24.90
2023-12-05T04:10:53.089Z,26.77
2023-12-05T04:13:29.439Z,24.00
2023-12-05T04:15:57.557Z,22.92
2023-12-05T04:18:25.263Z,23.70
2023-12-05T04:20:52.237Z,25.42
2023-12-05T04:23:19.097Z,22.75
2023-12-05T04:25:45.918Z,24.00
2023-12-05T04:28:12.767Z,27.42
2023-12-05T04:30:39.664Z,27.70
2023-12-05T04:33:06.728Z,27.60
2023-12-05T04:35:33.648Z,30.65
2023-12-05T04:38:00.487Z,27.42
2023-12-05T04:40:27.340Z,26.50
2023-12-05T04:42:54.261Z,25.50
2023-12-05T04:45:22.098Z,28.27
2023-12-05T04:47:49.040Z,29.25
2023-12-05T04:50:15.984Z,33.10
2023-12-05T04:52:42.858Z,28.38
2023-12-05T04:55:09.811Z,28.38
2023-12-05T04:57:36.963Z,33.22
2023-12-05T05:00:06.384Z,26.92
2023-12-05T05:02:33.306Z,29.25
2023-12-05T05:05:00.309Z,30.35
2023-12-05T05:07:27.308Z,27.92
2023-12-05T05:09:54.282Z,27.60
2023-12-05T05:12:21.232Z,34.67
2023-12-05T05:14:48.305Z,29.70
2023-12-05T05:17:15.163Z,35.72
2023-12-05T05:19:42.128Z,31.25
2023-12-05T05:22:09.053Z,29.75
2023-12-05T05:24:36.041Z,28.13
2023-12-05T05:27:02.979Z,30.73
2023-12-05T05:29:29.900Z,31.15
2023-12-05T05:31:57.064Z,36.20
2023-12-05T05:34:24.982Z,29.60
2023-12-05T05:36:52.147Z,30.38
2023-12-05T05:39:19.120Z,30.48
2023-12-05T05:41:46.053Z,31.45
2023-12-05T05:44:12.942Z,27.63
2023-12-05T05:46:39.831Z,32.78
2023-12-05T05:49:06.841Z,31.05
2023-12-05T05:51:34.035Z,29.98
2023-12-05T05:54:00.942Z,34.90
2023-12-05T05:56:27.811Z,34.47
2023-12-05T05:58:54.662Z,31.55
2023-12-05T06:01:22.251Z,32.55
2023-12-05T06:03:49.187Z,32.20
2023-12-05T06:06:16.309Z,33.03
2023-12-05T06:08:43.371Z,33.88
2023-12-05T06:11:10.170Z,35.30
2023-12-05T06:13:37.001Z,31.30
2023-12-05T06:16:04.073Z,32.50
2023-12-05T06:18:30.968Z,33.05
2023-12-05T06:20:59.031Z,32.72
2023-12-05T06:23:26.064Z,32.72
2023-12-05T06:25:52.927Z,37.60
2023-12-05T06:28:19.943Z,33.20
2023-12-05T06:30:46.985Z,36.17
2023-12-05T06:33:14.058Z,34.28
2023-12-05T06:35:41.153Z,30.85
2023-12-05T06:38:07.999Z,35.97
2023-12-05T06:40:34.961Z,34.60
2023-12-05T06:43:01.821Z,36.83
2023-12-05T06:45:28.890Z,32.53
2023-12-05T06:47:55.796Z,41.65
2023-12-05T06:50:22.909Z,38.88
2023-12-05T06:52:51.376Z,29.98
2023-12-05T06:55:18.517Z,35.53
2023-12-05T06:57:47.020Z,37.88
2023-12-05T07:00:15.137Z,32.80
2023-12-05T07:02:41.970Z,36.10
2023-12-05T07:05:10.036Z,41.95
2023-12-05T07:07:37.435Z,37.78
2023-12-05T07:10:07.068Z,40.53
2023-12-05T07:12:35.009Z,38.50
2023-12-05T07:15:02.284Z,41.30
2023-12-05T07:17:29.280Z,36.63
2023-12-05T07:19:56.987Z,38.38
2023-12-05T07:22:24.533Z,38.17
2023-12-05T07:24:51.562Z,40.88
2023-12-05T07:27:18.613Z,34.50
2023-12-05T07:29:46.023Z,37.88
2023-12-05T07:32:12.923Z,34.08
2023-12-05T07:34:40.453Z,36.03
2023-12-05T07:37:10.239Z,32.78
2023-12-05T07:39:37.642Z,34.63
2023-12-05T07:42:04.753Z,38.85
2023-12-05T07:44:31.831Z,38.30
2023-12-05T07:46:58.903Z,41.58
2023-12-05T07:49:26.604Z,35.55
2023-12-05T07:51:53.593Z,41.10
2023-12-05T07:54:20.530Z,33.25
2023-12-05T07:56:47.459Z,34.97
2023-12-05T07:59:16.443Z,38.40
2023-12-05T08:01:45.529Z,33.40
2023-12-05T08:04:12.482Z,33.88
2023-12-05T08:06:39.437Z,33.22
2023-12-05T08:09:07.239Z,38.53
2023-12-05T08:11:34.176Z,36.60
2023-12-05T08:14:01.056Z,36.45
2023-12-05T08:16:27.887Z,38.42
2023-12-05T08:18:54.906Z,37.22
2023-12-05T08:21:21.839Z,31.73
2023-12-05T08:23:48.882Z,34.10
2023-12-05T08:26:15.828Z,36.78
2023-12-05T08:28:42.916Z,33.13
2023-12-05T08:31:09.780Z,35.33
2023-12-05T08:33:37.064Z,38.33
2023-12-05T08:36:04.236Z,36.58
2023-12-05T08:38:31.190Z,35.38
2023-12-05T08:40:58.122Z,34.75
2023-12-05T08:43:25.049Z,33.97
2023-12-05T08:45:52.522Z,32.58
2023-12-05T08:48:19.764Z,30.02
2023-12-05T08:50:47.442Z,33.20
2023-12-05T08:53:14.383Z,31.88
2023-12-05T08:55:42.836Z,31.25
2023-12-05T08:58:09.732Z,31.20
2023-12-05T09:00:36.674Z,31.77
2023-12-05T09:03:04.646Z,32.20
2023-12-05T09:05:31.541Z,33.42
2023-12-05T09:07:58.532Z,34.97
2023-12-05T09:10:25.568Z,35.08
2023-12-05T09:12:52.466Z,38.13
2023-12-05T09:15:19.407Z,35.33
2023-12-05T09:17:46.361Z,38.28
2023-12-05T09:20:13.544Z,33.67
2023-12-05T09:22:40.402Z,31.13
2023-12-05T09:25:08.156Z,33.97
2023-12-05T09:27:35.146Z,42.65
2023-12-05T09:30:02.203Z,33.17
2023-12-05T09:32:29.151Z,31.42
2023-12-05T09:34:56.166Z,33.58
2023-12-05T09:37:23.034Z,33.22
2023-12-05T09:39:50.691Z,29.90
2023-12-05T09:42:20.409Z,34.38
2023-12-05T09:44:48.887Z,38.70
2023-12-05T09:47:22.780Z,36.80
2023-12-05T09:49:50.279Z,37.92
2023-12-05T09:52:17.457Z,35.17
2023-12-05T09:54:45.124Z,29.98
2023-12-05T09:57:14.069Z,34.35
2023-12-05T09:59:41.584Z,33.08
2023-12-05T10:04:46.870Z,34.15
2023-12-05T10:07:14.823Z,47.40
2023-12-05T10:09:43.339Z,64.53
2023-12-05T10:12:11.796Z,40.80
2023-12-05T10:14:39.435Z,39.95
2023-12-05T10:17:08.405Z,38.55
2023-12-05T10:19:36.593Z,38.30
2023-12-05T10:22:04.186Z,33.45
2023-12-05T10:24:44.195Z,36.75
2023-12-05T10:27:11.523Z,40.78
2023-12-05T10:29:41.204Z,34.50
2023-12-05T10:32:11.823Z,34.70
2023-12-05T10:34:49.764Z,35.63
2023-12-05T10:37:27.633Z,40.70
2023-12-05T10:39:56.854Z,33.95
2023-12-05T10:42:28.497Z,33.35
2023-12-05T10:44:55.655Z,33.25
2023-12-05T10:47:26.198Z,33.03
2023-12-05T10:49:53.563Z,30.23
2023-12-05T10:52:21.416Z,34.47
2023-12-05T10:54:57.535Z,32.97
2023-12-05T10:57:32.222Z,27.73
2023-12-05T11:00:00.118Z,34.88
2023-12-05T11:02:27.252Z,34.33
2023-12-05T11:04:55.421Z,34.63
2023-12-05T11:07:22.401Z,32.95
2023-12-05T11:09:49.371Z,35.05
2023-12-05T11:12:19.139Z,38.17
2023-12-05T11:14:49.110Z,35.35
2023-12-05T11:17:25.646Z,30.98
2023-12-05T11:20:11.100Z,32.95
2023-12-05T11:22:59.715Z,30.90
2023-12-05T11:25:45.598Z,30.80
2023-12-05T11:28:27.468Z,36.08
2023-12-05T11:31:09.813Z,32.80
2023-12-05T11:33:55.425Z,32.05
2023-12-05T11:36:37.642Z,32.33
2023-12-05T11:39:05.216Z,34.15
2023-12-05T11:41:32.174Z,33.10
2023-12-05T11:44:14.415Z,34.53
2023-12-05T11:46:45.431Z,33.83
2023-12-05T11:49:12.668Z,35.30
2023-12-05T11:51:39.709Z,35.35
2023-12-05T11:54:10.070Z,36.50
2023-12-05T11:56:37.045Z,33.58
2023-12-05T11:59:25.133Z,32.55
2023-12-05T12:01:52.104Z,33.63
2023-12-05T12:04:23.801Z,31.40
2023-12-05T12:06:51.695Z,27.60
2023-12-05T12:09:18.942Z,31.10
2023-12-05T12:11:46.126Z,37.03
2023-12-05T12:14:14.190Z,29.00
2023-12-05T12:16:43.650Z,31.75
2023-12-05T12:19:13.269Z,32.00
2023-12-05T12:21:40.582Z,36.88
2023-12-05T12:24:08.992Z,33.58
2023-12-05T12:26:36.011Z,29.85
2023-12-05T12:29:22.750Z,34.78
2023-12-05T12:31:51.267Z,34.50
2023-12-05T12:34:22.796Z,29.15
2023-12-05T12:36:52.740Z,35.22
2023-12-05T12:39:20.558Z,31.65
2023-12-05T12:41:47.733Z,31.90
2023-12-05T12:44:14.876Z,33.67
2023-12-05T12:46:42.403Z,32.78
2023-12-05T12:49:10.262Z,41.15
2023-12-05T12:51:44.402Z,40.47
2023-12-05T12:54:11.605Z,30.73
2023-12-05T12:56:41.859Z,40.78
2023-12-05T12:59:12.201Z,33.22
2023-12-05T13:01:40.820Z,33.50
2023-12-05T13:04:12.948Z,35.35
2023-12-05T13:06:47.160Z,40.80
2023-12-05T13:09:20.471Z,36.75
2023-12-05T13:11:48.287Z,32.75
2023-12-05T13:14:18.240Z,39.05
2023-12-05T13:16:45.913Z,38.00
2023-12-05T13:19:33.613Z,35.88
2023-12-05T13:22:00.960Z,39.88
2023-12-05T13:24:27.999Z,37.28
2023-12-05T13:26:55.187Z,38.90
2023-12-05T13:29:22.066Z,36.78
2023-12-05T13:31:49.813Z,35.13
2023-12-05T13:34:16.903Z,41.15
2023-12-05T13:36:44.081Z,41.08
2023-12-05T13:39:13.402Z,39.03
2023-12-05T13:41:41.009Z,36.95
2023-12-05T13:44:10.279Z,33.42
2023-12-05T13:46:37.426Z,37.00
2023-12-05T13:49:07.299Z,42.80
2023-12-05T13:51:35.330Z,44.67
2023-12-05T13:54:02.943Z,46.50
2023-12-05T13:56:30.603Z,44.28
2023-12-05T13:58:59.451Z,41.78
2023-12-05T14:01:26.597Z,43.88
2023-12-05T14:03:53.906Z,47.17
2023-12-05T14:06:21.083Z,42.25
2023-12-05T14:08:48.281Z,41.15
2023-12-05T14:11:15.278Z,42.17
2023-12-05T14:13:48.369Z,45.08
2023-12-05T14:16:15.833Z,44.78
2023-12-05T14:18:42.765Z,36.78
2023-12-05T14:21:09.823Z,41.38
2023-12-05T14:23:36.843Z,47.47
2023-12-05T14:26:05.087Z,44.38
2023-12-05T14:28:31.941Z,39.28
2023-12-05T14:30:59.460Z,41.33
2023-12-05T14:33:26.537Z,38.95
2023-12-05T14:35:53.757Z,40.20
2023-12-05T14:38:20.642Z,38.25
2023-12-05T14:40:47.542Z,38.78
2023-12-05T14:43:14.528Z,40.50
2023-12-05T14:45:42.193Z,37.25
2023-12-05T14:48:09.761Z,35.97
2023-12-05T14:50:36.743Z,36.85
2023-12-05T14:53:03.861Z,36.75
2023-12-05T14:55:31.134Z,41.70
2023-12-05T14:57:58.176Z,42.60
2023-12-05T15:00:25.598Z,41.17
2023-12-05T15:02:52.548Z,35.67
2023-12-05T15:05:19.524Z,38.63
2023-12-05T15:07:46.645Z,38.88
2023-12-05T15:10:13.784Z,44.88
2023-12-05T15:12:41.661Z,36.20
2023-12-05T15:15:10.005Z,40.03
2023-12-05T15:17:37.442Z,42.90
2023-12-05T15:20:19.618Z,39.92
2023-12-05T15:22:50.701Z,40.00
2023-12-05T15:25:17.928Z,43.10
2023-12-05T15:27:45.159Z,39.65
2023-12-05T15:30:14.177Z,39.60
2023-12-05T15:32:51.704Z,40.95
2023-12-05T15:35:20.481Z,41.40
2023-12-05T15:37:47.517Z,40.03
2023-12-05T15:40:15.371Z,41.92
2023-12-05T15:42:45.960Z,39.35
2023-12-05T15:45:13.814Z,43.80
2023-12-05T15:47:44.202Z,41.08
2023-12-05T15:50:11.470Z,38.63
2023-12-05T15:52:38.887Z,43.63
2023-12-05T15:55:06.926Z,42.72
2023-12-05T15:57:34.071Z,46.40
2023-12-05T16:00:00.972Z,40.75
2023-12-05T16:02:33.583Z,44.10
2023-12-05T16:05:00.614Z,45.92
2023-12-05T16:07:28.199Z,46.50
2023-12-05T16:09:55.328Z,45.22
2023-12-05T16:12:22.298Z,42.97
2023-12-05T16:14:49.248Z,44.95
2023-12-05T16:17:16.302Z,49.97
2023-12-05T16:19:44.116Z,48.28
2023-12-05T16:22:11.408Z,57.88
2023-12-05T16:24:38.529Z,46.67
2023-12-05T16:27:05.950Z,43.42
2023-12-05T16:29:32.970Z,49.65
2023-12-05T16:31:59.966Z,49.58
2023-12-05T16:34:27.045Z,50.45
2023-12-05T16:36:54.549Z,47.47
2023-12-05T16:39:21.494Z,48.88
2023-12-05T16:41:48.605Z,49.15
2023-12-05T16:44:15.542Z,53.28
2023-12-05T16:46:43.046Z,50.50
2023-12-05T16:49:11.945Z,48.42
2023-12-05T16:51:39.339Z,50.08
2023-12-05T16:54:06.244Z,48.42
2023-12-05T16:56:33.168Z,44.35
2023-12-05T16:59:01.972Z,48.38
2023-12-05T17:01:28.969Z,48.22
2023-12-05T17:03:56.103Z,52.10
2023-12-05T17:06:23.114Z,53.03
2023-12-05T17:08:49.977Z,51.20
2023-12-05T17:11:16.884Z,53.03
2023-12-05T17:13:43.759Z,47.97
2023-12-05T17:16:11.274Z,51.78
2023-12-05T17:18:38.372Z,55.92
2023-12-05T17:21:05.596Z,48.15
2023-12-05T17:23:32.517Z,50.55
2023-12-05T17:25:59.936Z,49.15
2023-12-05T17:28:28.135Z,59.42
2023-12-05T17:30:55.148Z,54.60
2023-12-05T17:33:22.070Z,57.50
2023-12-05T17:35:49.092Z,55.08
2023-12-05T17:38:16.259Z,50.63
2023-12-05T17:40:43.558Z,49.55
2023-12-05T17:43:10.611Z,46.60
2023-12-05T17:45:38.459Z,49.15
2023-12-05T17:48:06.529Z,55.20
2023-12-05T17:50:33.699Z,47.95
2023-12-05T17:53:01.073Z,52.28
2023-12-05T17:55:27.994Z,56.15
2023-12-05T17:57:55.753Z,48.95
2023-12-05T18:00:22.831Z,50.00
2023-12-05T18:02:49.734Z,50.55
2023-12-05T18:05:16.714Z,50.55
2023-12-05T18:07:54.502Z,52.10
2023-12-05T18:10:25.260Z,57.60
2023-12-05T18:12:52.465Z,50.40
2023-12-05T18:15:19.580Z,52.63
2023-12-05T18:17:46.448Z,53.10
2023-12-05T18:20:13.348Z,55.70
2023-12-05T18:22:46.331Z,51.00
2023-12-05T18:25:13.900Z,49.45
2023-12-05T18:27:41.832Z,47.58
2023-12-05T18:30:09.285Z,58.38
2023-12-05T18:32:36.266Z,49.88
2023-12-05T18:35:03.755Z,48.83
2023-12-05T18:37:30.756Z,52.58
2023-12-05T18:39:57.852Z,55.58
2023-12-05T18:42:25.153Z,54.05
2023-12-05T18:44:52.018Z,50.83
2023-12-05T18:47:19.203Z,56.25
2023-12-05T18:49:46.537Z,56.85
2023-12-05T18:52:13.572Z,54.03
2023-12-05T18:54:40.591Z,49.30
2023-12-05T18:57:07.550Z,57.33
2023-12-05T18:59:35.187Z,55.92
2023-12-05T19:02:02.223Z,53.40
2023-12-05T19:04:29.129Z,50.85
2023-12-05T19:06:56.456Z,45.83
2023-12-05T19:09:23.592Z,53.20
2023-12-05T19:11:50.502Z,52.05
2023-12-05T19:14:17.515Z,54.88
2023-12-05T19:16:44.470Z,46.03
2023-12-05T19:19:11.642Z,54.20
2023-12-05T19:21:38.656Z,51.58
2023-12-05T19:24:05.619Z,50.28
2023-12-05T19:26:35.078Z,58.88
2023-12-05T19:29:01.952Z,51.00
2023-12-05T19:31:31.634Z,49.47
2023-12-05T19:33:58.714Z,53.10
2023-12-05T19:36:25.868Z,54.08
2023-12-05T19:38:53.718Z,56.60
2023-12-05T19:41:20.591Z,49.42
2023-12-05T19:43:48.971Z,48.88
2023-12-05T19:46:16.237Z,53.35
2023-12-05T19:48:45.013Z,50.15
2023-12-05T19:51:12.450Z,59.33
2023-12-05T19:53:39.406Z,51.97
2023-12-05T19:56:06.872Z,56.95
2023-12-05T19:58:36.406Z,58.42
2023-12-05T20:01:03.509Z,58.67
2023-12-05T20:03:30.625Z,56.40
2023-12-05T20:05:58.775Z,53.35
2023-12-05T20:08:25.769Z,54.33
2023-12-05T20:10:52.622Z,53.30
2023-12-05T20:13:19.534Z,54.38
2023-12-05T20:15:46.697Z,53.45
2023-12-05T20:18:13.748Z,52.72
2023-12-05T20:20:40.779Z,54.67
2023-12-05T20:23:08.467Z,56.65
2023-12-05T20:25:35.319Z,54.65
2023-12-05T20:28:02.871Z,55.35
2023-12-05T20:30:29.934Z,55.22
2023-12-05T20:32:56.883Z,50.33
2023-12-05T20:35:23.863Z,59.88
2023-12-05T20:37:50.699Z,58.92
2023-12-05T20:40:17.679Z,56.42
2023-12-05T20:42:44.659Z,58.13
2023-12-05T20:45:11.954Z,54.17
2023-12-05T20:47:39.000Z,53.50
2023-12-05T20:50:06.492Z,54.13
2023-12-05T20:52:33.493Z,48.50
2023-12-05T20:55:00.615Z,57.35
2023-12-05T20:57:27.630Z,60.92
2023-12-05T20:59:54.561Z,49.13
2023-12-05T21:02:21.655Z,56.72
2023-12-05T21:04:48.951Z,58.15
2023-12-05T21:07:19.954Z,54.60
2023-12-05T21:09:47.254Z,53.58
2023-12-05T21:12:15.019Z,61.40
2023-12-05T21:14:42.441Z,55.90
2023-12-05T21:17:09.520Z,52.67
2023-12-05T21:19:36.506Z,54.05
2023-12-05T21:22:03.971Z,59.15
2023-12-05T21:24:34.109Z,60.92
2023-12-05T21:27:01.984Z,53.42
2023-12-05T21:29:28.845Z,55.97
2023-12-05T21:31:55.950Z,62.92
2023-12-05T21:34:22.917Z,57.33
2023-12-05T21:36:50.250Z,62.03
2023-12-05T21:39:17.186Z,56.50
2023-12-05T21:41:44.067Z,57.78
2023-12-05T21:44:10.971Z,66.25
2023-12-05T21:46:39.548Z,58.55
2023-12-05T21:49:06.718Z,56.92
2023-12-05T21:51:35.641Z,61.85
2023-12-05T21:54:03.896Z,59.78
2023-12-05T21:56:31.143Z,57.65
2023-12-05T21:58:58.016Z,57.60
2023-12-05T22:01:26.419Z,62.25
2023-12-05T22:03:53.574Z,68.20
2023-12-05T22:06:20.809Z,56.08
2023-12-05T22:08:48.514Z,56.38
2023-12-05T22:11:15.578Z,62.97
2023-12-05T22:13:44.551Z,61.42
2023-12-05T22:16:11.585Z,61.20
2023-12-05T22:18:38.748Z,63.90
2023-12-05T22:21:07.880Z,70.00
2023-12-05T22:23:41.303Z,59.22
2023-12-05T22:26:09.590Z,73.90
2023-12-05T22:28:36.956Z,59.53
2023-12-05T22:31:05.729Z,56.08
2023-12-05T22:33:32.970Z,59.63
2023-12-05T22:35:59.960Z,64.70
2023-12-05T22:38:26.987Z,62.92
2023-12-05T22:40:53.856Z,56.33
2023-12-05T22:43:21.629Z,59.45
2023-12-05T22:45:48.461Z,65.30
2023-12-05T22:48:15.420Z,54.08
2023-12-05T22:50:42.330Z,62.22
2023-12-05T22:53:09.216Z,53.80
2023-12-05T22:55:42.250Z,55.70
2023-12-05T22:58:09.523Z,62.38
2023-12-05T23:00:37.009Z,61.75
2023-12-05T23:03:04.055Z,61.63
2023-12-05T23:05:31.094Z,59.58
2023-12-05T23:07:59.441Z,63.83
2023-12-05T23:10:26.364Z,58.17
2023-12-05T23:12:53.389Z,60.17
2023-12-05T23:15:20.430Z,63.05
2023-12-05T23:17:47.445Z,60.67
2023-12-05T23:20:14.814Z,58.40
2023-12-05T23:22:42.452Z,54.50
2023-12-05T23:25:09.505Z,59.03
2023-12-05T23:27:36.698Z,63.13
2023-12-05T23:30:04.241Z,54.15
2023-12-05T23:44:36.096Z,56.80
2023-12-05T23:47:03.065Z,59.90
2023-12-05T23:49:30.189Z,56.92
2023-12-05T23:51:57.313Z,57.45
2023-12-05T23:54:24.183Z,62.60
2023-12-05T23:56:51.050Z,63.90
2023-12-05T23:59:17.899Z,58.42
